createdAt,value
2022-09-22T00:00:17.308Z,14.60
2022-09-22T00:02:18.940Z,14.60
2022-09-22T00:04:20.527Z,14.60
2022-09-22T00:06:23.664Z,14.60
2022-09-22T00:08:25.348Z,14.60
2022-09-22T00:10:28.237Z,14.60
2022-09-22T00:12:29.824Z,14.50
2022-09-22T00:14:31.403Z,14.50
2022-09-22T00:16:46.416Z,14.50
2022-09-22T00:18:48.153Z,14.50
2022-09-22T00:20:49.818Z,14.50
2022-09-22T00:22:51.833Z,14.50
2022-09-22T00:24:53.709Z,14.50
2022-09-22T00:26:57.302Z,14.50
2022-09-22T00:29:01.490Z,14.50
2022-09-22T00:31:06.782Z,14.60
2022-09-22T00:33:09.408Z,14.50
2022-09-22T00:35:11.026Z,14.50
2022-09-22T00:37:12.618Z,14.50
2022-09-22T00:39:14.797Z,14.50
2022-09-22T00:41:18.735Z,14.50
2022-09-22T00:43:22.100Z,14.50
2022-09-22T00:45:23.683Z,14.50
2022-09-22T00:47:37.092Z,14.50
2022-09-22T00:49:53.777Z,14.50
2022-09-22T00:51:55.394Z,14.50
2022-09-22T00:53:57.729Z,14.50
2022-09-22T00:56:03.105Z,14.50
2022-09-22T00:58:07.517Z,14.50
2022-09-22T01:00:12.261Z,14.50
2022-09-22T01:02:13.973Z,14.50
2022-09-22T01:04:17.101Z,14.50
2022-09-22T01:06:21.694Z,14.50
2022-09-22T01:08:23.702Z,14.40
2022-09-22T01:10:26.260Z,14.50
2022-09-22T01:12:29.533Z,14.40
2022-09-22T01:14:31.973Z,14.40
2022-09-22T01:16:52.311Z,14.40
2022-09-22T01:19:09.257Z,14.40
2022-09-22T01:21:19.575Z,14.40
2022-09-22T01:23:27.346Z,14.30
2022-09-22T01:25:47.304Z,14.40
2022-09-22T01:28:04.114Z,14.40
2022-09-22T01:30:12.026Z,14.40
2022-09-22T01:32:28.964Z,14.40
2022-09-22T01:34:33.695Z,14.30
2022-09-22T01:36:38.827Z,14.40
2022-09-22T01:38:55.829Z,14.40
2022-09-22T01:41:00.407Z,14.30
2022-09-22T01:43:05.186Z,14.30
2022-09-22T01:45:09.760Z,14.30
2022-09-22T01:47:26.807Z,14.30
2022-09-22T01:49:30.068Z,14.30
2022-09-22T01:51:38.898Z,14.30
2022-09-22T01:53:44.063Z,14.30
2022-09-22T01:55:47.852Z,14.30
2022-09-22T01:58:18.620Z,14.30
2022-09-22T02:00:20.462Z,14.30
2022-09-22T02:02:24.957Z,14.30
2022-09-22T02:04:32.158Z,14.30
2022-09-22T02:06:45.263Z,14.30
2022-09-22T02:09:05.702Z,14.30
2022-09-22T02:11:09.911Z,14.30
2022-09-22T02:13:11.762Z,14.30
2022-09-22T02:15:32.172Z,14.30
2022-09-22T02:17:35.423Z,14.30
2022-09-22T02:19:38.033Z,14.30
2022-09-22T02:21:40.341Z,14.30
2022-09-22T02:23:42.175Z,14.30
2022-09-22T02:25:44.409Z,14.30
2022-09-22T02:27:47.358Z,14.20
2022-09-22T02:29:54.199Z,14.30
2022-09-22T02:31:56.487Z,14.20
2022-09-22T02:33:58.207Z,14.20
2022-09-22T02:36:23.199Z,14.20
2022-09-22T02:38:32.919Z,14.20
2022-09-22T02:40:46.905Z,14.20
2022-09-22T02:42:53.033Z,14.10
2022-09-22T02:45:05.199Z,14.20
2022-09-22T02:47:09.028Z,14.10
2022-09-22T02:49:13.774Z,14.10
2022-09-22T02:51:16.228Z,14.10
2022-09-22T02:53:18.113Z,14.10
2022-09-22T02:55:20.012Z,14.10
2022-09-22T02:57:21.906Z,14.10
2022-09-22T02:59:24.407Z,14.10
2022-09-22T03:01:26.425Z,14.10
2022-09-22T03:03:30.690Z,14.10
2022-09-22T03:05:32.318Z,14.00
2022-09-22T03:07:33.910Z,14.10
2022-09-22T03:09:35.541Z,14.00
2022-09-22T03:11:37.172Z,14.10
2022-09-22T03:13:38.763Z,14.00
2022-09-22T03:15:40.416Z,14.10
2022-09-22T03:17:42.381Z,14.00
2022-09-22T03:19:44.008Z,14.00
2022-09-22T03:21:45.665Z,14.00
2022-09-22T03:23:47.256Z,14.00
2022-09-22T03:25:48.881Z,14.00
2022-09-22T03:27:50.481Z,13.90
2022-09-22T03:29:52.080Z,13.90
2022-09-22T03:31:53.747Z,13.90
2022-09-22T03:33:55.326Z,14.00
2022-09-22T03:35:56.934Z,13.90
2022-09-22T03:37:58.536Z,13.90
2022-09-22T03:40:00.247Z,13.90
2022-09-22T03:42:01.889Z,13.90
2022-09-22T03:44:04.403Z,13.90
2022-09-22T03:46:06.130Z,13.90
2022-09-22T03:48:07.802Z,13.90
2022-09-22T03:50:10.039Z,13.90
2022-09-22T03:52:11.653Z,13.90
2022-09-22T03:54:13.266Z,13.90
2022-09-22T03:56:15.592Z,13.90
2022-09-22T03:58:17.532Z,13.90
2022-09-22T04:00:19.215Z,13.90
2022-09-22T04:02:20.854Z,13.90
2022-09-22T04:04:22.536Z,13.90
2022-09-22T04:06:24.259Z,13.90
2022-09-22T04:08:25.879Z,13.90
2022-09-22T04:10:27.489Z,13.90
2022-09-22T04:12:29.146Z,13.80
2022-09-22T04:14:30.744Z,13.90
2022-09-22T04:16:32.870Z,13.80
2022-09-22T04:18:36.764Z,13.90
2022-09-22T04:20:41.817Z,13.80
2022-09-22T04:22:43.396Z,13.80
2022-09-22T04:24:45.014Z,13.80
2022-09-22T04:27:02.174Z,13.80
2022-09-22T04:29:08.217Z,13.80
2022-09-22T04:31:11.623Z,13.80
2022-09-22T04:33:13.420Z,13.80
2022-09-22T04:35:15.078Z,13.90
2022-09-22T04:37:16.788Z,13.80
2022-09-22T04:39:23.516Z,13.80
2022-09-22T04:41:25.540Z,13.80
2022-09-22T04:43:27.200Z,13.80
2022-09-22T04:45:28.852Z,13.80
2022-09-22T04:47:30.522Z,13.90
2022-09-22T04:49:32.116Z,13.80
2022-09-22T04:51:33.739Z,13.80
2022-09-22T04:53:35.334Z,13.80
2022-09-22T04:55:36.939Z,13.80
2022-09-22T04:57:38.739Z,13.80
2022-09-22T04:59:40.334Z,13.80
2022-09-22T05:01:42.006Z,13.80
2022-09-22T05:03:43.627Z,13.80
2022-09-22T05:05:47.171Z,13.80
2022-09-22T05:07:50.264Z,13.80
2022-09-22T05:09:51.828Z,13.80
2022-09-22T05:11:54.984Z,13.80
2022-09-22T05:13:57.814Z,13.80
2022-09-22T05:15:59.434Z,13.80
2022-09-22T05:18:01.128Z,13.70
2022-09-22T05:20:03.798Z,13.80
2022-09-22T05:22:05.393Z,13.80
2022-09-22T05:24:07.050Z,13.70
2022-09-22T05:26:08.872Z,13.80
2022-09-22T05:28:11.124Z,13.70
2022-09-22T05:30:12.897Z,13.70
2022-09-22T05:32:14.634Z,13.70
2022-09-22T05:34:16.316Z,13.70
2022-09-22T05:36:17.955Z,13.70
2022-09-22T05:38:19.649Z,13.70
2022-09-22T05:40:23.955Z,13.80
2022-09-22T05:42:25.738Z,13.70
2022-09-22T05:44:27.427Z,13.70
2022-09-22T05:46:29.259Z,13.70
2022-09-22T05:48:31.639Z,13.70
2022-09-22T05:50:33.363Z,13.70
2022-09-22T05:52:38.028Z,13.70
2022-09-22T05:54:39.744Z,13.80
2022-09-22T05:56:41.377Z,13.80
2022-09-22T05:58:42.957Z,13.70
2022-09-22T06:00:44.646Z,13.70
2022-09-22T06:02:46.373Z,13.70
2022-09-22T06:04:49.784Z,13.80
2022-09-22T06:06:51.787Z,13.80
2022-09-22T06:08:53.426Z,13.80
2022-09-22T06:10:55.090Z,13.80
2022-09-22T06:13:03.654Z,13.80
2022-09-22T06:15:05.999Z,13.80
2022-09-22T06:17:11.837Z,13.80
2022-09-22T06:19:14.412Z,13.80
2022-09-22T06:21:20.756Z,13.80
2022-09-22T06:23:22.801Z,13.80
2022-09-22T06:25:24.420Z,13.80
2022-09-22T06:27:26.089Z,13.80
2022-09-22T06:29:28.331Z,13.80
2022-09-22T06:31:29.983Z,13.90
2022-09-22T06:33:31.649Z,13.80
2022-09-22T06:35:39.615Z,13.90
2022-09-22T06:37:41.890Z,13.80
2022-09-22T06:39:43.533Z,13.80
2022-09-22T06:41:45.120Z,13.90
2022-09-22T06:43:48.718Z,13.90
2022-09-22T06:45:53.607Z,13.90
2022-09-22T06:47:58.844Z,13.90
2022-09-22T06:50:05.511Z,13.90
2022-09-22T06:52:09.708Z,13.90
2022-09-22T06:54:11.434Z,14.00
2022-09-22T06:56:13.125Z,14.00
2022-09-22T06:58:15.234Z,14.00
2022-09-22T07:00:17.872Z,14.00
2022-09-22T07:02:27.158Z,14.00
2022-09-22T07:04:31.449Z,14.00
2022-09-22T07:06:33.281Z,14.00
2022-09-22T07:08:35.606Z,14.10
2022-09-22T07:10:38.007Z,14.10
2022-09-22T07:12:39.833Z,14.10
2022-09-22T07:14:41.455Z,14.10
2022-09-22T07:16:43.853Z,14.20
2022-09-22T07:18:49.285Z,14.20
2022-09-22T07:21:00.770Z,14.20
2022-09-22T07:23:02.745Z,14.20
2022-09-22T07:25:04.663Z,14.20
2022-09-22T07:27:07.019Z,14.30
2022-09-22T07:29:14.191Z,14.40
2022-09-22T07:31:16.408Z,14.40
2022-09-22T07:33:19.718Z,14.40
2022-09-22T07:35:21.367Z,14.40
2022-09-22T07:37:24.035Z,14.50
2022-09-22T07:39:25.648Z,14.50
2022-09-22T07:41:28.599Z,14.60
2022-09-22T07:43:30.575Z,14.60
2022-09-22T07:45:32.183Z,14.60
2022-09-22T07:47:53.731Z,14.60
2022-09-22T07:49:55.381Z,14.70
2022-09-22T07:51:57.476Z,14.70
2022-09-22T07:54:08.043Z,14.70
2022-09-22T07:56:12.428Z,14.80
2022-09-22T07:58:17.359Z,14.80
2022-09-22T08:00:22.149Z,14.90
2022-09-22T08:02:26.051Z,14.90
2022-09-22T08:04:31.819Z,15.00
2022-09-22T08:06:34.988Z,15.10
2022-09-22T08:08:42.061Z,15.10
2022-09-22T08:10:43.810Z,15.10
2022-09-22T08:12:45.500Z,15.20
2022-09-22T08:14:47.229Z,15.20
2022-09-22T08:16:51.241Z,15.20
2022-09-22T08:18:56.585Z,15.30
2022-09-22T08:20:58.657Z,15.30
2022-09-22T08:23:04.918Z,15.40
2022-09-22T08:25:07.290Z,15.40
2022-09-22T08:27:08.921Z,15.40
2022-09-22T08:29:11.028Z,15.40
2022-09-22T08:31:13.438Z,15.50
2022-09-22T08:33:15.177Z,15.50
2022-09-22T08:35:17.450Z,15.50
2022-09-22T08:37:20.566Z,15.50
2022-09-22T08:39:22.210Z,15.60
2022-09-22T08:41:24.321Z,15.60
2022-09-22T08:43:27.572Z,15.60
2022-09-22T08:45:32.040Z,15.70
2022-09-22T08:48:00.616Z,15.70
2022-09-22T08:50:22.046Z,15.70
2022-09-22T08:52:38.892Z,15.80
2022-09-22T08:54:40.559Z,15.80
2022-09-22T08:57:01.083Z,15.80
2022-09-22T08:59:09.088Z,15.90
2022-09-22T09:01:20.244Z,15.90
2022-09-22T09:03:23.510Z,16.00
2022-09-22T09:05:28.140Z,16.00
2022-09-22T09:07:35.876Z,16.10
2022-09-22T09:09:40.425Z,16.20
2022-09-22T09:12:08.109Z,16.20
2022-09-22T09:14:48.306Z,16.30
2022-09-22T09:16:55.737Z,16.40
2022-09-22T09:19:17.686Z,16.40
2022-09-22T09:21:20.137Z,16.50
2022-09-22T09:25:21.990Z,16.60
2022-09-22T09:25:50.362Z,16.60
2022-09-22T09:27:57.098Z,16.60
2022-09-22T09:30:18.385Z,16.70
2022-09-22T09:32:33.125Z,16.70
2022-09-22T09:34:34.735Z,16.80
2022-09-22T09:36:39.129Z,16.80
2022-09-22T09:38:48.353Z,16.90
2022-09-22T09:40:54.264Z,16.90
2022-09-22T09:42:55.847Z,17.00
2022-09-22T09:45:02.520Z,17.00
2022-09-22T09:47:27.972Z,17.10
2022-09-22T09:49:29.751Z,17.10
2022-09-22T09:51:39.575Z,17.20
2022-09-22T09:53:45.267Z,17.30
2022-09-22T09:55:46.880Z,17.30
2022-09-22T09:58:08.309Z,17.30
2022-09-22T10:00:31.685Z,17.40
2022-09-22T10:02:35.247Z,17.50
2022-09-22T10:04:37.319Z,17.50
2022-09-22T10:06:38.908Z,17.60
2022-09-22T10:08:44.560Z,17.60
2022-09-22T10:10:46.940Z,17.70
2022-09-22T10:12:48.581Z,17.70
2022-09-22T10:14:51.682Z,17.80
2022-09-22T10:16:53.323Z,17.90
2022-09-22T10:19:00.657Z,17.90
2022-09-22T10:21:12.899Z,18.00
2022-09-22T10:23:22.065Z,18.00
2022-09-22T10:25:27.595Z,18.10
2022-09-22T10:27:30.622Z,18.20
2022-09-22T10:29:32.347Z,18.20
2022-09-22T10:31:36.962Z,18.30
2022-09-22T10:33:52.504Z,18.40
2022-09-22T10:35:55.694Z,18.50
2022-09-22T10:37:58.665Z,18.60
2022-09-22T10:40:01.586Z,18.60
2022-09-22T10:42:07.613Z,18.70
2022-09-22T10:44:37.889Z,18.80
2022-09-22T10:46:40.525Z,18.90
2022-09-22T10:48:48.381Z,19.00
2022-09-22T10:51:03.914Z,19.10
2022-09-22T10:53:05.499Z,19.20
2022-09-22T10:55:07.053Z,19.30
2022-09-22T10:57:17.792Z,19.40
2022-09-22T10:59:25.613Z,19.50
2022-09-22T11:01:45.969Z,19.60
2022-09-22T11:04:09.292Z,19.70
2022-09-22T11:06:32.950Z,19.80
2022-09-22T11:09:10.868Z,20.00
2022-09-22T11:11:39.545Z,20.00
2022-09-22T11:13:44.604Z,20.20
2022-09-22T11:15:58.620Z,20.30
2022-09-22T11:18:19.082Z,20.40
2022-09-22T11:20:39.231Z,20.50
2022-09-22T11:22:54.913Z,20.60
2022-09-22T11:24:59.611Z,20.60
2022-09-22T11:27:01.450Z,20.70
2022-09-22T11:29:09.061Z,20.80
2022-09-22T11:31:21.406Z,20.90
2022-09-22T11:33:30.986Z,20.90
2022-09-22T11:35:35.412Z,20.90
2022-09-22T11:37:37.015Z,20.90
2022-09-22T11:39:38.942Z,21.00
2022-09-22T11:41:42.139Z,21.00
2022-09-22T11:44:02.771Z,21.00
2022-09-22T11:46:07.539Z,21.00
2022-09-22T11:48:29.440Z,21.00
2022-09-22T11:50:49.476Z,21.10
2022-09-22T11:53:06.411Z,21.10
2022-09-22T11:55:23.547Z,21.20
2022-09-22T11:57:28.025Z,21.30
2022-09-22T11:59:35.359Z,21.30
2022-09-22T12:01:38.311Z,21.40
2022-09-22T12:03:48.139Z,21.50
2022-09-22T12:05:53.439Z,21.60
2022-09-22T12:08:10.620Z,21.60
2022-09-22T12:10:18.563Z,21.70
2022-09-22T12:12:22.057Z,21.80
2022-09-22T12:14:23.901Z,22.00
2022-09-22T12:16:30.872Z,22.00
2022-09-22T12:18:44.798Z,22.10
2022-09-22T12:20:54.957Z,22.10
2022-09-22T12:23:25.763Z,22.20
2022-09-22T12:25:50.684Z,22.30
2022-09-22T12:27:55.617Z,22.40
2022-09-22T12:30:13.386Z,22.50
2022-09-22T12:32:24.932Z,22.60
2022-09-22T12:34:28.227Z,22.60
2022-09-22T12:36:39.445Z,22.70
2022-09-22T12:38:41.362Z,22.80
2022-09-22T12:40:47.301Z,22.90
2022-09-22T12:42:50.715Z,23.00
2022-09-22T12:44:54.637Z,23.10
2022-09-22T12:46:58.373Z,23.20
2022-09-22T12:49:00.024Z,23.20
2022-09-22T12:51:24.943Z,23.30
2022-09-22T12:53:29.823Z,23.40
2022-09-22T12:55:38.909Z,23.50
2022-09-22T12:57:44.527Z,23.60
2022-09-22T12:59:46.691Z,23.60
2022-09-22T13:02:08.305Z,23.70
2022-09-22T13:04:16.882Z,23.70
2022-09-22T13:06:21.802Z,23.80
2022-09-22T13:08:24.902Z,23.90
2022-09-22T13:10:27.181Z,23.90
2022-09-22T13:12:28.912Z,23.90
2022-09-22T13:14:49.259Z,24.00
2022-09-22T13:16:52.546Z,24.00
2022-09-22T13:19:01.158Z,24.10
2022-09-22T13:21:20.420Z,24.10
2022-09-22T13:23:22.084Z,24.20
2022-09-22T13:25:25.318Z,24.20
2022-09-22T13:27:26.944Z,24.30
2022-09-22T13:29:28.568Z,24.30
2022-09-22T13:31:57.732Z,24.40
2022-09-22T13:33:59.344Z,24.50
2022-09-22T13:36:03.036Z,24.50
2022-09-22T13:38:04.911Z,24.60
2022-09-22T13:40:09.372Z,24.60
2022-09-22T13:42:16.027Z,24.70
2022-09-22T13:44:21.340Z,24.70
2022-09-22T13:46:35.356Z,24.70
2022-09-22T13:48:37.771Z,24.80
2022-09-22T13:50:50.296Z,24.80
2022-09-22T13:52:52.425Z,24.90
2022-09-22T13:54:56.055Z,24.90
2022-09-22T13:56:58.579Z,24.90
2022-09-22T13:59:01.996Z,25.00
2022-09-22T14:01:13.793Z,25.00
2022-09-22T14:03:20.213Z,25.00
2022-09-22T14:05:25.009Z,25.00
2022-09-22T14:07:27.802Z,25.00
2022-09-22T14:09:30.287Z,25.10
2022-09-22T14:11:32.484Z,25.10
2022-09-22T14:13:38.644Z,25.20
2022-09-22T14:15:43.533Z,25.20
2022-09-22T14:17:45.331Z,25.20
2022-09-22T14:19:57.461Z,25.20
2022-09-22T14:22:00.113Z,25.20
2022-09-22T14:24:01.932Z,25.30
2022-09-22T14:26:16.990Z,25.30
2022-09-22T14:28:24.889Z,25.30
2022-09-22T14:30:30.164Z,25.40
2022-09-22T14:32:34.980Z,25.40
2022-09-22T14:34:37.778Z,25.40
2022-09-22T14:36:43.208Z,25.40
2022-09-22T14:38:54.170Z,25.40
2022-09-22T14:41:03.070Z,25.40
2022-09-22T14:43:08.860Z,25.40
2022-09-22T14:45:10.457Z,25.40
2022-09-22T14:47:26.365Z,25.40
2022-09-22T14:49:39.407Z,25.40
2022-09-22T14:51:45.560Z,25.40
2022-09-22T14:53:49.250Z,25.40
2022-09-22T14:55:53.330Z,25.40
2022-09-22T14:57:55.352Z,25.40
2022-09-22T15:00:16.875Z,25.50
2022-09-22T15:02:33.812Z,25.50
2022-09-22T15:04:39.182Z,25.50
2022-09-22T15:06:40.750Z,25.50
2022-09-22T15:08:44.444Z,25.50
2022-09-22T15:10:53.715Z,25.50
2022-09-22T15:12:56.031Z,25.50
2022-09-22T15:15:00.461Z,25.50
2022-09-22T15:17:21.704Z,25.50
2022-09-22T15:19:24.165Z,25.50
2022-09-22T15:21:29.092Z,25.50
2022-09-22T15:23:41.839Z,25.50
2022-09-22T15:25:44.586Z,25.50
2022-09-22T15:27:46.236Z,25.50
2022-09-22T15:29:50.091Z,25.60
2022-09-22T15:31:51.786Z,25.50
2022-09-22T15:33:59.218Z,25.50
2022-09-22T15:36:02.117Z,25.60
2022-09-22T15:38:05.970Z,25.50
2022-09-22T15:40:21.321Z,25.50
2022-09-22T15:42:23.343Z,25.40
2022-09-22T15:44:25.017Z,25.40
2022-09-22T15:46:28.412Z,25.40
2022-09-22T15:48:30.111Z,25.30
2022-09-22T15:50:32.434Z,25.30
2022-09-22T15:52:34.039Z,25.20
2022-09-22T15:54:36.090Z,25.10
2022-09-22T15:56:38.323Z,25.00
2022-09-22T15:58:40.903Z,24.90
2022-09-22T16:00:42.583Z,24.80
2022-09-22T16:02:44.878Z,24.60
2022-09-22T16:04:46.562Z,24.50
2022-09-22T16:06:51.974Z,24.40
2022-09-22T16:08:55.131Z,24.30
2022-09-22T16:10:58.246Z,24.10
2022-09-22T16:13:01.022Z,24.00
2022-09-22T16:15:03.049Z,23.90
2022-09-22T16:17:05.893Z,23.70
2022-09-22T16:19:09.226Z,23.60
2022-09-22T16:21:19.340Z,23.50
2022-09-22T16:23:20.977Z,23.30
2022-09-22T16:25:23.058Z,23.20
2022-09-22T16:27:24.654Z,23.00
2022-09-22T16:29:26.345Z,22.90
2022-09-22T16:31:27.997Z,22.80
2022-09-22T16:33:30.092Z,22.70
2022-09-22T16:35:31.807Z,22.50
2022-09-22T16:37:33.406Z,22.40
2022-09-22T16:39:35.060Z,22.30
2022-09-22T16:41:37.014Z,22.20
2022-09-22T16:43:38.670Z,22.10
2022-09-22T16:45:59.126Z,22.00
2022-09-22T16:48:00.806Z,21.80
2022-09-22T16:50:02.393Z,21.70
2022-09-22T16:52:04.131Z,21.60
2022-09-22T16:54:07.398Z,21.40
2022-09-22T16:56:09.085Z,21.30
2022-09-22T16:58:13.039Z,21.20
2022-09-22T17:00:14.830Z,21.10
2022-09-22T17:02:16.518Z,21.00
2022-09-22T17:04:19.301Z,20.90
2022-09-22T17:06:25.221Z,20.80
2022-09-22T17:08:28.570Z,20.70
2022-09-22T17:10:35.687Z,20.60
2022-09-22T17:12:38.675Z,20.50
2022-09-22T17:14:43.530Z,20.40
2022-09-22T17:16:47.996Z,20.40
2022-09-22T17:18:53.128Z,20.30
2022-09-22T17:20:54.811Z,20.20
2022-09-22T17:22:56.715Z,20.20
2022-09-22T17:24:58.419Z,20.10
2022-09-22T17:27:00.177Z,20.00
2022-09-22T17:29:01.910Z,20.00
2022-09-22T17:31:07.053Z,19.90
2022-09-22T17:33:08.816Z,19.90
2022-09-22T17:35:11.827Z,19.80
2022-09-22T17:37:15.577Z,19.70
2022-09-22T17:39:17.280Z,19.70
2022-09-22T17:41:20.290Z,19.60
2022-09-22T17:43:22.694Z,19.60
2022-09-22T17:45:24.371Z,19.50
2022-09-22T17:47:44.535Z,19.50
2022-09-22T17:50:05.005Z,19.40
2022-09-22T17:52:26.643Z,19.30
2022-09-22T17:54:46.994Z,19.30
2022-09-22T17:56:48.609Z,19.20
2022-09-22T17:58:52.207Z,19.20
2022-09-22T18:00:53.870Z,19.10
2022-09-22T18:02:56.521Z,19.10
2022-09-22T18:04:58.265Z,19.00
2022-09-22T18:07:01.587Z,18.90
2022-09-22T18:09:03.380Z,18.90
2022-09-22T18:11:05.152Z,18.90
2022-09-22T18:13:10.181Z,18.80
2022-09-22T18:15:13.406Z,18.80
2022-09-22T18:17:15.986Z,18.70
2022-09-22T18:19:17.750Z,18.70
2022-09-22T18:21:19.487Z,18.70
2022-09-22T18:23:21.194Z,18.60
2022-09-22T18:25:25.387Z,18.60
2022-09-22T18:27:27.192Z,18.60
2022-09-22T18:29:28.916Z,18.50
2022-09-22T18:31:30.677Z,18.40
2022-09-22T18:33:32.486Z,18.50
2022-09-22T18:35:34.314Z,18.40
2022-09-22T18:37:36.034Z,18.30
2022-09-22T18:39:41.688Z,18.30
2022-09-22T18:41:43.539Z,18.20
2022-09-22T18:43:45.339Z,18.20
2022-09-22T18:45:47.016Z,18.10
2022-09-22T18:47:48.708Z,18.20
2022-09-22T18:49:51.706Z,18.10
2022-09-22T18:51:55.792Z,18.10
2022-09-22T18:53:58.055Z,18.00
2022-09-22T18:56:16.736Z,18.00
2022-09-22T18:58:18.399Z,17.90
2022-09-22T19:00:23.890Z,17.90
2022-09-22T19:02:25.732Z,17.80
2022-09-22T19:04:27.553Z,17.80
2022-09-22T19:06:29.888Z,17.80
2022-09-22T19:08:31.595Z,17.80
2022-09-22T19:10:33.275Z,17.70
2022-09-22T19:12:39.641Z,17.70
2022-09-22T19:14:41.767Z,17.70
2022-09-22T19:16:48.543Z,17.70
2022-09-22T19:18:50.192Z,17.70
2022-09-22T19:20:51.868Z,17.60
2022-09-22T19:22:53.888Z,17.60
2022-09-22T19:24:55.836Z,17.50
2022-09-22T19:26:57.596Z,17.50
2022-09-22T19:28:59.365Z,17.50
2022-09-22T19:31:01.099Z,17.50
2022-09-22T19:33:02.904Z,17.40
2022-09-22T19:35:05.624Z,17.40
2022-09-22T19:37:07.556Z,17.40
2022-09-22T19:39:12.143Z,17.30
2022-09-22T19:41:13.867Z,17.30
2022-09-22T19:43:15.630Z,17.30
2022-09-22T19:45:18.515Z,17.30
2022-09-22T19:47:20.982Z,17.20
2022-09-22T19:49:22.799Z,17.20
2022-09-22T19:51:24.495Z,17.20
2022-09-22T19:53:26.200Z,17.20
2022-09-22T19:55:28.041Z,17.20
2022-09-22T19:57:30.248Z,17.10
2022-09-22T19:59:31.921Z,17.10
2022-09-22T20:01:35.432Z,17.10
2022-09-22T20:03:37.196Z,17.10
2022-09-22T20:05:39.564Z,17.00
2022-09-22T20:07:41.799Z,17.00
2022-09-22T20:09:43.469Z,17.00
2022-09-22T20:11:46.710Z,17.00
2022-09-22T20:14:06.924Z,17.00
2022-09-22T20:16:08.725Z,16.90
2022-09-22T20:18:10.443Z,16.90
2022-09-22T20:20:13.260Z,16.90
2022-09-22T20:22:25.343Z,16.90
2022-09-22T20:24:30.966Z,16.90
2022-09-22T20:26:33.724Z,16.80
2022-09-22T20:28:35.957Z,16.80
2022-09-22T20:30:38.343Z,16.80
2022-09-22T20:32:40.929Z,16.80
2022-09-22T20:34:42.570Z,16.80
2022-09-22T20:36:44.344Z,16.70
2022-09-22T20:38:45.944Z,16.70
2022-09-22T20:40:48.037Z,16.70
2022-09-22T20:42:50.757Z,16.70
2022-09-22T20:44:52.395Z,16.70
2022-09-22T20:46:54.372Z,16.70
2022-09-22T20:48:57.394Z,16.70
2022-09-22T20:51:02.666Z,16.60
2022-09-22T20:53:04.793Z,16.60
2022-09-22T20:55:06.653Z,16.60
2022-09-22T20:57:08.313Z,16.60
2022-09-22T20:59:10.067Z,16.60
2022-09-22T21:01:13.723Z,16.50
2022-09-22T21:03:15.507Z,16.50
2022-09-22T21:05:17.131Z,16.50
2022-09-22T21:07:19.189Z,16.50
2022-09-22T21:09:39.703Z,16.50
2022-09-22T21:11:41.299Z,16.50
2022-09-22T21:13:43.059Z,16.40
2022-09-22T21:15:44.772Z,16.40
2022-09-22T21:17:48.493Z,16.40
2022-09-22T21:19:50.454Z,16.40
2022-09-22T21:21:52.085Z,16.30
2022-09-22T21:23:54.912Z,16.30
2022-09-22T21:25:56.645Z,16.30
2022-09-22T21:27:58.497Z,16.20
2022-09-22T21:30:00.171Z,16.30
2022-09-22T21:32:02.553Z,16.30
2022-09-22T21:34:04.405Z,16.20
2022-09-22T21:36:08.617Z,16.20
2022-09-22T21:38:11.080Z,16.20
2022-09-22T21:40:13.050Z,16.20
2022-09-22T21:42:14.777Z,16.20
2022-09-22T21:44:16.369Z,16.20
2022-09-22T21:46:19.480Z,16.20
2022-09-22T21:48:21.228Z,16.20
2022-09-22T21:50:23.264Z,16.10
2022-09-22T21:52:24.865Z,16.10
2022-09-22T21:54:26.470Z,16.10
2022-09-22T21:56:30.010Z,16.10
2022-09-22T21:58:33.157Z,16.10
2022-09-22T22:00:51.155Z,16.00
2022-09-22T22:03:12.335Z,16.00
2022-09-22T22:05:14.942Z,16.00
2022-09-22T22:07:16.633Z,16.00
2022-09-22T22:09:19.634Z,16.00
2022-09-22T22:11:24.648Z,16.00
2022-09-22T22:13:26.247Z,15.90
2022-09-22T22:15:28.239Z,15.90
2022-09-22T22:17:29.896Z,15.90
2022-09-22T22:19:31.499Z,15.90
2022-09-22T22:21:33.118Z,15.90
2022-09-22T22:23:36.524Z,15.90
2022-09-22T22:25:38.873Z,15.80
2022-09-22T22:27:40.811Z,15.80
2022-09-22T22:29:42.663Z,15.80
2022-09-22T22:31:44.575Z,15.80
2022-09-22T22:33:47.064Z,15.80
2022-09-22T22:35:55.581Z,15.80
2022-09-22T22:37:57.195Z,15.70
2022-09-22T22:39:58.892Z,15.70
2022-09-22T22:42:00.515Z,15.70
2022-09-22T22:44:02.327Z,15.70
2022-09-22T22:46:07.368Z,15.60
2022-09-22T22:48:09.048Z,15.70
2022-09-22T22:50:10.682Z,15.60
2022-09-22T22:52:12.318Z,15.60
2022-09-22T22:54:14.494Z,15.60
2022-09-22T22:56:19.943Z,15.60
2022-09-22T22:58:22.408Z,15.50
2022-09-22T23:00:24.065Z,15.50
2022-09-22T23:02:26.202Z,15.50
2022-09-22T23:04:27.841Z,15.50
2022-09-22T23:06:31.531Z,15.50
2022-09-22T23:08:33.250Z,15.50
2022-09-22T23:10:35.328Z,15.50
2022-09-22T23:12:40.210Z,15.50
2022-09-22T23:14:41.902Z,15.50
2022-09-22T23:16:44.562Z,15.50
2022-09-22T23:18:46.193Z,15.40
2022-09-22T23:20:47.783Z,15.40
2022-09-22T23:22:50.108Z,15.40
2022-09-22T23:24:53.828Z,15.50
2022-09-22T23:26:55.458Z,15.40
2022-09-22T23:29:01.424Z,15.40
2022-09-22T23:31:10.353Z,15.40
2022-09-22T23:33:12.468Z,15.40
2022-09-22T23:35:14.053Z,15.40
2022-09-22T23:37:15.643Z,15.40
2022-09-22T23:39:17.312Z,15.40
2022-09-22T23:41:19.021Z,15.30
2022-09-22T23:43:22.278Z,15.30
2022-09-22T23:45:24.125Z,15.30
2022-09-22T23:47:25.756Z,15.30
2022-09-22T23:49:27.368Z,15.30
2022-09-22T23:51:29.217Z,15.30
2022-09-22T23:53:32.101Z,15.30
2022-09-22T23:55:33.797Z,15.30
2022-09-22T23:57:35.398Z,15.30
2022-09-22T23:59:37.055Z,15.30
